This is the latest recevied weather packets stored in our database for station/object N4OOJ-13. If no packets are shown the sender has not sent any weather packets the latest 10 day(s).
| Time | Temp. | Humidity | Pressure | Rain* | Wind** | Luminosity | Snow |
|---|---|---|---|---|---|---|---|
| 1777331426 | 21.11° C | 58% | 1023.3 hPa | 0 mm | - | - | - |
| 1777330833 | 20.56° C | 59% | 1023.3 hPa | 0 mm | - | - | - |
| 1777330227 | 21.67° C | 56% | 1023.4 hPa | 0 mm | - | - | - |
| 1777329622 | 22.78° C | 54% | 1023.4 hPa | 0 mm | - | - | - |
| 1777329016 | 22.78° C | 53% | 1023.4 hPa | 0 mm | - | - | - |
| 1777328428 | 22.78° C | 52% | 1023.1 hPa | 0 mm | - | - | - |
| 1777327822 | 22.78° C | 53% | 1023.3 hPa | 0 mm | - | - | - |
| 1777327216 | 21.67° C | 57% | 1023.3 hPa | 0 mm | - | - | - |
| 1777326629 | 20° C | 60% | 1023.2 hPa | 0 mm | - | - | - |
| 1777326023 | 20° C | 61% | 1023.1 hPa | 0 mm | - | - | - |
| 1777325417 | 20° C | 60% | 1023.1 hPa | 0 mm | - | - | - |
| 1777324830 | 19.44° C | 62% | 1023 hPa | 0 mm | - | - | - |
| 1777324226 | 20° C | 62% | 1023 hPa | 0 mm | - | - | - |
| 1777323626 | 19.44° C | 61% | 1023.1 hPa | 0 mm | - | - | - |
| 1777323021 | 19.44° C | 62% | 1023.2 hPa | 0 mm | - | - | - |
| 1777322416 | 18.89° C | 65% | 1023.4 hPa | 0 mm | - | - | - |
| 1777321829 | 18.89° C | 63% | 1023.4 hPa | 0 mm | - | - | - |
| 1777321224 | 17.78° C | 66% | 1023.4 hPa | 0 mm | - | - | - |
| 1777320618 | 18.33° C | 65% | 1023.6 hPa | 0 mm | - | - | - |
| 1777320026 | 18.89° C | 64% | 1023.6 hPa | 0 mm | - | - | - |
| 1777319426 | 18.33° C | 65% | 1023.5 hPa | 0 mm | - | - | - |
| 1777318834 | 17.78° C | 65% | 1023.5 hPa | 0 mm | - | - | - |
| 1777318233 | 17.22° C | 68% | 1023.7 hPa | 0 mm | - | - | - |
| 1777317622 | 17.22° C | 67% | 1023.9 hPa | 0 mm | - | - | - |
| 1777317016 | 17.22° C | 69% | 1023.9 hPa | 0 mm | - | - | - |
* Rain latest hour (hover to see other rain measurements)
** Current wind speed in m/s (hover to see current wind gust speed)